Time;durP1;ratioP1;P1;durP2;ratioP2;P2;SDS_P1;SDS_P2;PMS_P1;PMS_P2;Temp;Humidity;BMP_temperature;BMP_pressure;BME280_temperature;BME280_humidity;BME280_pressure;Samples;Min_cycle;Max_cycle;Signal;HPM_P1;HPM_P2
2022/01/31 00:00:47;;;;;;;;;9.00;5.50;;;;;6.55;80.83;101531.22;5120600;27;45371;-67
2022/01/31 00:03:12;;;;;;;;;8.00;7.00;;;;;6.92;80.64;101575.94;5120582;27;45376;-65
2022/01/31 00:05:38;;;;;;;;;7.50;3.00;;;;;6.90;80.69;101565.47;5120050;27;46418;-65
2022/01/31 00:08:03;;;;;;;;;3.75;3.00;;;;;6.98;80.61;101575.97;5120223;27;45349;-65
2022/01/31 00:10:31;;;;;;;;;5.75;3.75;;;;;7.02;80.58;101583.00;5120266;27;45378;-64
2022/01/31 00:13:08;;;;;;;;;8.75;4.00;;;;;7.09;80.41;101569.06;5120436;27;45362;-65
2022/01/31 00:15:41;;;;;;;;;3.25;3.00;;;;;7.13;80.72;101569.94;5119420;27;46809;-64
2022/01/31 00:18:06;;;;;;;;;5.00;2.00;;;;;7.10;80.61;101541.13;5101668;27;45461;-65
2022/01/31 00:20:32;;;;;;;;;8.00;4.25;;;;;7.21;80.47;101542.03;5120256;27;45410;-64
2022/01/31 00:22:57;;;;;;;;;8.50;3.00;;;;;7.21;80.45;101515.84;5120208;27;45479;-64
2022/01/31 00:25:23;;;;;;;;;5.50;4.00;;;;;7.22;80.45;101512.38;5120074;27;46182;-65
2022/01/31 00:27:48;;;;;;;;;3.00;3.00;;;;;7.30;80.61;101515.00;5119837;27;45285;-65
2022/01/31 00:30:15;;;;;;;;;9.25;4.00;;;;;7.24;81.61;101500.16;5120118;27;45269;-65
2022/01/31 00:32:41;;;;;;;;;5.00;3.25;;;;;7.32;81.95;101498.44;5120273;27;45384;-65
2022/01/31 00:35:07;;;;;;;;;4.75;3.00;;;;;7.35;81.85;101480.97;5119553;27;46096;-65
2022/01/31 00:37:33;;;;;;;;;2.75;2.00;;;;;7.36;82.58;101475.72;5119811;27;45334;-65
2022/01/31 00:39:58;;;;;;;;;3.75;3.25;;;;;7.40;83.57;101471.38;5119897;27;45368;-66
2022/01/31 00:42:26;;;;;;;;;4.00;3.00;;;;;7.32;84.21;101439.94;5119854;27;45541;-65
2022/01/31 00:44:58;;;;;;;;;3.00;3.00;;;;;7.32;84.44;101451.28;5119727;27;47511;-64
2022/01/31 00:47:30;;;;;;;;;3.50;3.50;;;;;7.26;84.93;101430.31;5119713;27;45442;-64
2022/01/31 00:50:09;;;;;;;;;7.75;3.00;;;;;7.22;85.50;101422.44;5119558;27;45368;-64
2022/01/31 00:52:36;;;;;;;;;3.25;3.25;;;;;7.23;86.02;101391.03;5119786;27;45342;-64
2022/01/31 00:55:06;;;;;;;;;13.00;4.00;;;;;7.26;86.79;101393.66;5119099;27;46698;-65
2022/01/31 00:57:32;;;;;;;;;2.75;2.75;;;;;7.25;87.89;101398.88;5118610;27;45355;-64
2022/01/31 00:59:57;;;;;;;;;2.00;2.00;;;;;7.15;88.76;101370.03;5119480;27;45470;-64
2022/01/31 01:02:24;;;;;;;;;4.00;2.25;;;;;7.22;89.20;101376.19;5119968;27;45372;-65
2022/01/31 01:04:51;;;;;;;;;12.50;5.50;;;;;7.19;90.22;101373.56;5119115;27;47446;-65
2022/01/31 01:07:19;;;;;;;;;10.50;4.50;;;;;7.20;91.18;101369.19;5119439;27;45334;-64
2022/01/31 01:09:45;;;;;;;;;8.75;3.75;;;;;7.18;91.69;101363.09;5118949;27;45374;-65
2022/01/31 01:12:11;;;;;;;;;3.50;3.50;;;;;7.22;92.12;101354.34;5119509;27;45404;-64
2022/01/31 01:14:38;;;;;;;;;2.50;2.00;;;;;7.22;93.23;101341.25;5119048;27;45441;-67
2022/01/31 01:17:04;;;;;;;;;10.25;6.00;;;;;7.23;93.74;101333.41;5119088;27;45477;-66
2022/01/31 01:19:29;;;;;;;;;7.50;5.00;;;;;7.21;94.52;101326.41;5100862;27;45383;-66
2022/01/31 01:21:55;;;;;;;;;4.50;3.00;;;;;7.14;94.48;101318.56;5119474;27;45284;-66
2022/01/31 01:24:20;;;;;;;;;2.00;2.00;;;;;7.13;94.50;101295.84;5118991;27;46484;-66
2022/01/31 01:26:47;;;;;;;;;4.25;2.50;;;;;7.19;95.74;101284.50;5118968;27;45273;-66
2022/01/31 01:29:13;;;;;;;;;8.25;3.25;;;;;7.24;96.46;101297.59;5119076;27;45323;-64
2022/01/31 01:31:38;;;;;;;;;2.25;2.00;;;;;7.14;97.52;101278.38;5119374;27;45203;-64
2022/01/31 01:34:04;;;;;;;;;1.75;1.50;;;;;7.21;99.14;101293.22;5118952;27;45986;-64
2022/01/31 01:36:31;;;;;;;;;10.00;4.00;;;;;7.07;99.44;101266.16;5118823;27;45231;-64
2022/01/31 01:38:57;;;;;;;;;6.75;1.75;;;;;7.15;100.00;101283.63;5118879;27;45216;-64
2022/01/31 01:41:22;;;;;;;;;3.00;2.25;;;;;7.15;100.00;101293.25;5118796;27;45404;-65
2022/01/31 01:43:47;;;;;;;;;3.00;2.00;;;;;7.00;100.00;101256.56;5118817;27;46463;-64
2022/01/31 01:46:13;;;;;;;;;1.75;1.50;;;;;7.05;100.00;101260.06;5118652;27;45325;-64
2022/01/31 01:48:38;;;;;;;;;3.00;2.50;;;;;7.19;100.00;101291.47;5118868;27;45356;-64
2022/01/31 01:51:04;;;;;;;;;4.25;2.00;;;;;7.19;100.00;101268.81;5119098;27;45386;-65
2022/01/31 01:53:30;;;;;;;;;3.00;1.25;;;;;7.19;100.00;101270.53;5118485;27;47558;-64
2022/01/31 01:55:56;;;;;;;;;2.00;1.25;;;;;6.97;100.00;101232.16;5118594;27;45488;-64
2022/01/31 01:58:23;;;;;;;;;3.00;2.50;;;;;7.25;100.00;101284.50;5118765;27;45400;-65
2022/01/31 02:00:58;;;;;;;;;3.50;2.00;;;;;7.22;100.00;101271.41;5118861;27;45241;-65
2022/01/31 02:03:25;;;;;;;;;3.50;2.25;;;;;7.32;100.00;101267.91;5118467;27;46187;-64
2022/01/31 02:05:51;;;;;;;;;2.75;1.00;;;;;7.35;100.00;101260.91;5118330;27;45289;-64
2022/01/31 02:08:20;;;;;;;;;2.75;0.00;;;;;7.37;100.00;101259.19;5118056;27;45455;-64
2022/01/31 02:10:46;;;;;;;;;4.00;1.00;;;;;7.39;100.00;101260.03;5118809;27;45391;-65
2022/01/31 02:13:15;;;;;;;;;3.25;1.00;;;;;7.40;100.00;101265.28;5117667;27;47480;-64
2022/01/31 02:15:43;;;;;;;;;1.00;1.00;;;;;7.39;100.00;101268.78;5099609;27;45326;-65
2022/01/31 02:18:08;;;;;;;;;0.00;0.00;;;;;7.45;100.00;101267.88;5097854;27;45387;-64
2022/01/31 02:20:39;;;;;;;;;1.00;1.00;;;;;7.50;100.00;101266.16;5098127;27;45380;-64
2022/01/31 02:23:09;;;;;;;;;1.00;1.00;;;;;7.48;100.00;101252.19;5097573;27;46368;-65
2022/01/31 02:25:57;;;;;;;;;0.75;0.00;;;;;7.59;100.00;101254.78;5097857;27;45354;-64
2022/01/31 02:28:25;;;;;;;;;1.00;0.00;;;;;7.63;100.00;101246.88;5097844;27;45578;-65
2022/01/31 02:30:51;;;;;;;;;1.25;0.00;;;;;7.66;100.00;101257.38;5098041;27;45347;-65
2022/01/31 02:33:18;;;;;;;;;1.50;1.00;;;;;7.56;100.00;101220.72;5097277;27;46538;-65
2022/01/31 02:35:48;;;;;;;;;0.00;0.00;;;;;7.77;100.00;101251.22;5097271;27;45352;-65
2022/01/31 02:38:14;;;;;;;;;1.25;1.25;;;;;7.78;100.00;101248.59;5097641;27;45297;-65
2022/01/31 02:40:39;;;;;;;;;1.25;1.25;;;;;7.85;100.00;101267.81;5098165;27;45252;-65
2022/01/31 02:43:05;;;;;;;;;3.25;1.75;;;;;7.80;100.00;101261.72;5097077;27;45426;-65
2022/01/31 02:45:30;;;;;;;;;1.00;1.00;;;;;7.89;100.00;101273.94;5097234;27;45265;-65
2022/01/31 02:47:58;;;;;;;;;2.25;1.00;;;;;7.97;100.00;101283.50;5097651;27;45326;-65
2022/01/31 02:50:25;;;;;;;;;3.00;1.00;;;;;7.96;99.46;101252.06;5097505;27;45369;-65
2022/01/31 02:53:00;;;;;;;;;1.00;1.00;;;;;7.97;98.26;101244.19;5096944;27;45494;-65
2022/01/31 02:55:25;;;;;;;;;1.00;1.00;;;;;8.05;97.13;101245.91;5097454;27;45367;-65
2022/01/31 02:57:51;;;;;;;;;0.00;0.00;;;;;8.10;94.58;101258.09;5097284;27;45376;-65
2022/01/31 03:00:16;;;;;;;;;3.00;1.25;;;;;8.04;92.87;101247.63;5097524;27;45273;-65
2022/01/31 03:02:41;;;;;;;;;3.00;1.00;;;;;8.04;91.90;101233.66;5097013;27;46284;-65
2022/01/31 03:05:07;;;;;;;;;1.00;1.00;;;;;8.12;90.54;101264.22;5097169;27;45455;-65
2022/01/31 03:07:34;;;;;;;;;4.25;1.50;;;;;8.11;87.17;101243.25;5097452;27;45324;-65
2022/01/31 03:10:00;;;;;;;;;0.00;0.00;;;;;7.80;87.09;101215.41;5097506;27;45389;-65
2022/01/31 03:12:25;;;;;;;;;1.75;1.75;;;;;7.95;86.53;101238.06;5096929;27;46412;-65
2022/01/31 03:14:50;;;;;;;;;4.00;3.00;;;;;7.88;86.35;101241.56;5108251;27;45349;-65
2022/01/31 03:17:16;;;;;;;;;2.75;1.75;;;;;7.79;85.92;101239.00;5117723;27;45318;-64
2022/01/31 03:19:42;;;;;;;;;3.75;0.50;;;;;7.66;85.36;101230.28;5118301;27;45386;-65
2022/01/31 03:22:08;;;;;;;;;1.00;1.00;;;;;7.71;85.05;101251.25;5121056;27;46233;-65
2022/01/31 03:24:35;;;;;;;;;2.25;1.75;;;;;7.66;85.11;101256.50;5121329;27;45410;-65
2022/01/31 03:27:01;;;;;;;;;3.00;1.00;;;;;7.72;84.09;101266.09;5120838;27;45496;-65
2022/01/31 03:29:27;;;;;;;;;2.25;1.25;;;;;7.68;83.98;101265.22;5121297;27;45322;-65
2022/01/31 03:31:52;;;;;;;;;3.50;1.50;;;;;7.58;83.72;101253.00;5121071;27;45447;-65
2022/01/31 03:34:18;;;;;;;;;2.00;1.00;;;;;7.54;83.81;101256.50;5120630;27;45363;-65
2022/01/31 03:36:43;;;;;;;;;0.00;0.00;;;;;7.58;82.96;101272.25;5121199;27;45273;-65
2022/01/31 03:39:09;;;;;;;;;3.50;1.00;;;;;7.51;82.30;101260.03;5120990;27;45240;-65
2022/01/31 03:41:34;;;;;;;;;1.00;0.00;;;;;7.56;81.42;101266.13;5120572;27;46391;-64
2022/01/31 03:44:00;;;;;;;;;4.50;0.00;;;;;7.51;80.71;101267.91;5121062;27;45489;-64
2022/01/31 03:46:25;;;;;;;;;0.00;0.00;;;;;7.43;79.16;101262.66;5120798;27;45571;-65
2022/01/31 03:48:51;;;;;;;;;0.25;0.25;;;;;7.43;79.45;101261.78;5120894;27;45218;-65
2022/01/31 03:51:16;;;;;;;;;2.00;1.00;;;;;7.39;78.72;101271.41;5119237;27;46490;-65
2022/01/31 03:53:42;;;;;;;;;2.00;0.00;;;;;7.28;79.29;101263.53;5120498;27;45216;-65
2022/01/31 03:56:07;;;;;;;;;0.50;0.00;;;;;7.38;78.02;101267.03;5119254;27;45421;-65
2022/01/31 03:58:33;;;;;;;;;0.00;0.00;;;;;7.37;78.42;101269.66;5120809;27;45442;-65
2022/01/31 04:00:59;;;;;;;;;2.75;0.75;;;;;7.29;78.49;101273.16;5120419;27;46463;-65
2022/01/31 04:03:24;;;;;;;;;0.00;0.00;;;;;7.31;77.75;101265.28;5120255;27;45369;-64
2022/01/31 04:05:49;;;;;;;;;0.00;0.00;;;;;7.23;78.08;101262.69;5120699;27;45471;-64
2022/01/31 04:08:15;;;;;;;;;1.00;1.00;;;;;7.24;76.87;101255.69;5120643;27;45441;-64
2022/01/31 04:10:40;;;;;;;;;1.25;0.00;;;;;7.19;77.69;101247.84;5120332;27;46568;-64
2022/01/31 04:13:06;;;;;;;;;0.00;0.00;;;;;7.15;76.54;101252.19;5120370;27;45302;-64
2022/01/31 04:15:35;;;;;;;;;1.50;0.00;;;;;7.13;76.94;101239.97;5120055;27;45424;-64
2022/01/31 04:18:01;;;;;;;;;1.00;0.00;;;;;7.17;76.17;101244.34;5120613;27;45457;-64
2022/01/31 04:20:27;;;;;;;;;1.50;1.00;;;;;7.21;74.65;101248.72;5120130;27;45389;-64
2022/01/31 04:23:03;;;;;;;;;0.25;0.25;;;;;7.20;75.06;101248.72;5119794;27;45282;-65
2022/01/31 04:25:30;;;;;;;;;0.00;0.00;;;;;7.12;75.59;101243.50;5120421;27;45312;-65
2022/01/31 04:28:03;;;;;;;;;0.00;0.00;;;;;7.15;75.11;101264.44;5120251;27;45441;-64
2022/01/31 04:30:36;;;;;;;;;2.50;0.00;;;;;7.15;75.69;101262.69;5119681;27;46786;-64
2022/01/31 04:33:01;;;;;;;;;1.00;0.00;;;;;7.13;75.31;101263.53;5119744;27;45329;-65
2022/01/31 04:35:27;;;;;;;;;0.00;0.00;;;;;7.11;75.61;101284.50;5120175;27;45276;-65
2022/01/31 04:37:52;;;;;;;;;3.50;1.00;;;;;6.92;74.54;101241.72;5120159;27;45561;-65
2022/01/31 04:40:18;;;;;;;;;2.00;0.00;;;;;7.06;74.93;101256.59;5119909;27;47112;-64
2022/01/31 04:42:44;;;;;;;;;0.50;0.50;;;;;7.08;75.05;101263.53;5119777;27;45318;-65
2022/01/31 04:45:10;;;;;;;;;0.00;0.00;;;;;7.08;75.46;101258.31;5119752;27;45331;-65
2022/01/31 04:47:36;;;;;;;;;1.00;0.00;;;;;7.05;75.11;101260.94;5120298;27;45264;-64
2022/01/31 04:50:04;;;;;;;;;0.00;0.00;;;;;7.05;75.15;101252.22;5119522;27;46065;-65
2022/01/31 04:52:29;;;;;;;;;2.00;0.50;;;;;7.07;75.41;101251.34;5119627;27;45407;-65
2022/01/31 04:54:54;;;;;;;;;0.50;0.50;;;;;7.00;75.25;101248.72;5119740;27;45284;-65
2022/01/31 04:57:20;;;;;;;;;1.00;0.00;;;;;7.00;74.76;101236.50;5119753;27;45462;-65
2022/01/31 04:59:45;;;;;;;;;1.25;0.00;;;;;7.05;74.26;101255.69;5119675;27;46580;-65
2022/01/31 05:02:11;;;;;;;;;0.00;0.00;;;;;7.07;73.00;101258.31;5119679;27;45352;-65
2022/01/31 05:04:37;;;;;;;;;0.00;0.00;;;;;7.09;73.56;101259.19;5119741;27;45227;-65
2022/01/31 05:07:02;;;;;;;;;0.75;0.50;;;;;7.09;73.75;101251.34;5119758;27;45169;-65
2022/01/31 05:09:28;;;;;;;;;0.25;0.00;;;;;6.94;72.95;101220.78;5118985;27;47076;-65
2022/01/31 05:11:53;;;;;;;;;1.00;0.00;;;;;7.06;73.52;101241.75;5117323;27;45298;-64
2022/01/31 05:14:19;;;;;;;;;2.00;0.25;;;;;6.95;73.66;101226.00;5103281;27;45469;-65
2022/01/31 05:16:45;;;;;;;;;0.00;0.00;;;;;7.00;74.18;101238.25;5107379;27;45434;-65
2022/01/31 05:19:10;;;;;;;;;2.75;0.00;;;;;6.93;73.47;101245.25;5098661;27;46337;-65
2022/01/31 05:21:38;;;;;;;;;0.00;0.00;;;;;7.01;73.11;101274.88;5098580;27;45853;-65
2022/01/31 05:24:04;;;;;;;;;4.50;0.00;;;;;6.99;73.11;101275.78;5099076;27;45253;-65
2022/01/31 05:26:29;;;;;;;;;0.00;0.00;;;;;6.86;74.08;101246.97;5098503;27;45292;-65
2022/01/31 05:28:54;;;;;;;;;0.25;0.00;;;;;6.96;73.91;101269.66;5080014;27;46398;-65
2022/01/31 05:31:20;;;;;;;;;3.75;1.00;;;;;6.97;73.63;101260.03;5098797;27;45458;-65
2022/01/31 05:33:45;;;;;;;;;2.75;0.25;;;;;6.95;73.15;101253.94;5098259;27;45373;-65
2022/01/31 05:36:11;;;;;;;;;5.00;0.75;;;;;6.82;73.00;101226.91;5098890;27;45205;-65
2022/01/31 05:38:38;;;;;;;;;1.00;0.00;;;;;6.92;73.38;101248.72;5098141;27;45376;-65
2022/01/31 05:41:10;;;;;;;;;0.25;0.25;;;;;6.91;71.92;101247.84;5097932;27;45400;-65
2022/01/31 05:43:36;;;;;;;;;3.50;0.25;;;;;6.92;73.61;101256.56;5098013;27;45362;-65
2022/01/31 05:46:02;;;;;;;;;3.75;1.00;;;;;6.90;72.87;101240.00;5098520;27;45305;-65
2022/01/31 05:48:28;;;;;;;;;0.50;0.50;;;;;6.92;72.60;101244.34;5098048;27;46567;-65
2022/01/31 05:50:54;;;;;;;;;0.00;0.00;;;;;6.91;72.69;101250.47;5098160;27;45444;-67
2022/01/31 05:53:20;;;;;;;;;0.00;0.00;;;;;6.97;71.59;101255.72;5098269;27;45371;-67
2022/01/31 05:55:45;;;;;;;;;7.25;1.00;;;;;6.93;71.23;101256.56;5098361;27;45387;-67
2022/01/31 05:58:11;;;;;;;;;0.00;0.00;;;;;7.00;70.92;101278.41;5097658;27;46582;-67
2022/01/31 06:00:37;;;;;;;;;0.00;0.00;;;;;6.93;70.68;101263.56;5098226;27;45802;-64
2022/01/31 06:03:04;;;;;;;;;3.75;0.00;;;;;6.89;71.28;101246.97;5097846;27;45339;-65
2022/01/31 06:05:29;;;;;;;;;0.00;0.00;;;;;6.66;71.28;101205.06;5098209;27;45522;-64
2022/01/31 06:07:55;;;;;;;;;1.00;1.00;;;;;6.94;71.52;101249.59;5098222;27;45241;-64
2022/01/31 06:10:24;;;;;;;;;1.50;0.00;;;;;6.93;70.65;101261.81;5097642;27;45375;-64
2022/01/31 06:12:52;;;;;;;;;2.50;1.00;;;;;6.91;70.96;101266.19;5097940;27;45445;-64
2022/01/31 06:15:18;;;;;;;;;1.75;1.00;;;;;6.83;71.62;101246.97;5097734;27;45333;-64
2022/01/31 06:17:43;;;;;;;;;1.00;1.00;;;;;6.89;69.92;101262.66;5097369;27;47332;-63
2022/01/31 06:20:09;;;;;;;;;0.00;0.00;;;;;6.89;70.32;101262.66;5098155;27;45483;-63
2022/01/31 06:22:34;;;;;;;;;2.00;0.00;;;;;6.75;71.02;101240.84;5097832;27;45217;-64
2022/01/31 06:24:59;;;;;;;;;7.00;3.00;;;;;6.85;71.15;101262.69;5098061;27;45482;-63
2022/01/31 06:27:25;;;;;;;;;3.25;0.00;;;;;6.80;72.37;101260.91;5097524;27;47229;-64
2022/01/31 06:29:50;;;;;;;;;1.00;1.00;;;;;6.84;72.44;101253.06;5097367;27;45795;-66
2022/01/31 06:32:18;;;;;;;;;1.25;1.25;;;;;6.84;71.38;101263.53;5097744;27;45285;-66
2022/01/31 06:34:43;;;;;;;;;3.25;1.00;;;;;6.81;70.90;101261.78;5097424;27;45505;-66
2022/01/31 06:37:09;;;;;;;;;1.00;0.00;;;;;6.77;71.17;101239.97;5097452;27;46427;-66
2022/01/31 06:39:34;;;;;;;;;1.50;0.00;;;;;6.80;72.05;101244.34;5097347;27;45324;-66
2022/01/31 06:41:59;;;;;;;;;1.00;1.00;;;;;6.80;72.61;101242.59;5097660;27;45747;-67
2022/01/31 06:44:25;;;;;;;;;0.00;0.00;;;;;6.75;72.30;101249.59;5097805;27;45380;-66
2022/01/31 06:46:50;;;;;;;;;0.00;0.00;;;;;6.74;71.67;101250.44;5097506;27;45363;-66
2022/01/31 06:49:15;;;;;;;;;2.25;0.00;;;;;6.74;71.03;101252.22;5097329;27;45423;-66
2022/01/31 06:51:41;;;;;;;;;2.25;0.75;;;;;6.66;71.39;101259.16;5097430;27;45582;-66
2022/01/31 06:54:07;;;;;;;;;5.00;0.00;;;;;6.79;71.65;101284.47;5098298;27;45339;-66
2022/01/31 06:56:35;;;;;;;;;2.00;0.75;;;;;6.75;71.50;101287.94;5101036;27;46138;-66
2022/01/31 06:59:02;;;;;;;;;4.00;0.75;;;;;6.75;71.82;101288.84;5100694;27;45310;-66
2022/01/31 07:01:27;;;;;;;;;3.00;1.00;;;;;6.67;71.54;101306.25;5100611;27;45384;-66
2022/01/31 07:03:54;;;;;;;;;3.50;1.00;;;;;6.76;71.25;101298.41;5101145;27;45427;-66
2022/01/31 07:06:21;;;;;;;;;2.75;0.25;;;;;6.74;70.86;101304.56;5100450;27;46678;-67
2022/01/31 07:08:46;;;;;;;;;1.00;1.00;;;;;6.74;70.14;101313.25;5100559;27;45415;-67
2022/01/31 07:11:17;;;;;;;;;3.00;0.00;;;;;6.80;70.31;101315.03;5100837;27;45410;-64
2022/01/31 07:13:43;;;;;;;;;0.00;0.00;;;;;6.66;70.05;101314.13;5100099;27;45564;-64
2022/01/31 07:16:09;;;;;;;;;0.00;0.00;;;;;6.77;70.43;101330.72;5100436;27;46139;-66
2022/01/31 07:18:36;;;;;;;;;0.00;0.00;;;;;6.83;69.91;101356.03;5100397;27;45490;-66
2022/01/31 07:21:02;;;;;;;;;1.00;1.00;;;;;6.82;69.79;101355.16;5100376;27;45366;-66
2022/01/31 07:23:38;;;;;;;;;3.00;0.00;;;;;6.94;68.71;101362.16;5100672;27;45526;-66
2022/01/31 07:26:04;;;;;;;;;3.50;2.00;;;;;6.93;69.48;101374.38;5116489;27;46437;-66
2022/01/31 07:28:30;;;;;;;;;2.00;1.00;;;;;6.57;69.12;101318.44;5120407;27;45410;-66
2022/01/31 07:30:57;;;;;;;;;1.00;0.00;;;;;6.97;68.69;101375.25;5121133;27;45383;-66
2022/01/31 07:33:22;;;;;;;;;0.00;0.00;;;;;7.08;68.59;101384.00;5120896;27;45344;-65
2022/01/31 07:35:49;;;;;;;;;2.00;0.25;;;;;7.06;68.76;101363.94;5119323;27;46312;-65
2022/01/31 07:38:16;;;;;;;;;2.25;0.75;;;;;7.07;67.33;101352.56;5120693;27;45537;-66
2022/01/31 07:40:42;;;;;;;;;4.75;1.50;;;;;7.13;67.97;101368.28;5120903;27;45376;-65
2022/01/31 07:43:07;;;;;;;;;1.50;1.00;;;;;7.15;67.61;101362.19;5120770;27;45346;-65
2022/01/31 07:45:33;;;;;;;;;1.25;0.25;;;;;7.22;67.71;101380.53;5120386;27;46359;-65
2022/01/31 07:47:59;;;;;;;;;4.50;0.75;;;;;7.22;68.24;101384.03;5120571;27;45422;-65
2022/01/31 07:50:25;;;;;;;;;3.25;1.00;;;;;7.00;67.70;101332.50;5120499;27;45288;-65
2022/01/31 07:52:50;;;;;;;;;1.25;0.00;;;;;7.12;66.78;101354.34;5120883;27;45470;-65
2022/01/31 07:55:17;;;;;;;;;2.25;0.25;;;;;7.28;66.87;101386.66;5120571;27;46180;-65
2022/01/31 07:57:45;;;;;;;;;1.25;0.50;;;;;7.23;67.40;101390.13;5120188;27;45331;-65
2022/01/31 08:00:11;;;;;;;;;3.00;0.25;;;;;7.37;65.67;101412.00;5120319;27;45324;-66
2022/01/31 08:02:36;;;;;;;;;0.75;0.75;;;;;7.32;64.82;101406.75;5120464;27;45333;-64
2022/01/31 08:05:02;;;;;;;;;3.00;2.00;;;;;7.33;66.09;101397.13;5119532;27;45352;-64
2022/01/31 08:07:27;;;;;;;;;3.00;1.00;;;;;7.35;65.54;101397.13;5120057;27;45367;-64
2022/01/31 08:09:53;;;;;;;;;1.00;1.00;;;;;7.46;64.99;101411.13;5120159;27;45709;-64
2022/01/31 08:12:18;;;;;;;;;3.00;1.00;;;;;7.39;64.54;101409.38;5120676;27;45353;-64
2022/01/31 08:14:44;;;;;;;;;7.00;0.25;;;;;7.50;65.21;101418.97;5119365;27;45829;-64
2022/01/31 08:17:10;;;;;;;;;3.00;1.00;;;;;7.50;64.48;101410.25;5119790;27;45191;-63
2022/01/31 08:19:36;;;;;;;;;1.25;1.25;;;;;7.54;64.79;101430.34;5120468;27;45164;-66
2022/01/31 08:22:02;;;;;;;;;2.00;1.25;;;;;7.54;63.85;101446.06;5120374;27;45447;-65
2022/01/31 08:24:27;;;;;;;;;2.50;1.00;;;;;7.57;64.39;101438.22;5120274;27;45251;-64
2022/01/31 08:26:53;;;;;;;;;0.25;0.00;;;;;7.59;64.95;101440.84;5120133;27;45211;-64
2022/01/31 08:29:35;;;;;;;;;5.50;2.00;;;;;7.63;64.67;101435.59;5101336;27;45314;-64
2022/01/31 08:32:05;;;;;;;;;5.00;1.00;;;;;7.52;63.65;101411.13;5120164;27;45851;-64
2022/01/31 08:37:15;;;;;;;;;1.00;1.00;;;;;7.61;63.54;101420.72;5119830;27;45351;-64
2022/01/31 08:39:41;;;;;;;;;1.00;1.00;;;;;7.58;64.23;101425.97;5119641;27;45375;-64
2022/01/31 08:42:07;;;;;;;;;2.25;2.00;;;;;7.72;64.29;101431.22;5120188;27;45312;-66
2022/01/31 08:44:32;;;;;;;;;7.00;1.00;;;;;7.80;63.42;101427.75;5119396;27;45392;-67
2022/01/31 08:46:58;;;;;;;;;2.50;0.00;;;;;7.76;63.67;101438.22;5119366;27;45560;-67
2022/01/31 08:49:23;;;;;;;;;4.00;1.00;;;;;7.73;63.95;101433.00;5120073;27;45735;-67
2022/01/31 08:51:49;;;;;;;;;4.75;3.00;;;;;7.80;63.76;101443.47;5119611;27;45350;-65
2022/01/31 08:54:15;;;;;;;;;2.00;1.00;;;;;7.75;64.04;101439.97;5119497;27;46700;-65
2022/01/31 08:56:44;;;;;;;;;0.50;0.00;;;;;7.77;63.46;101455.69;5119439;27;45159;-64
2022/01/31 08:59:14;;;;;;;;;1.00;1.00;;;;;8.16;63.78;101451.28;5119269;27;45428;-65
2022/01/31 09:01:43;;;;;;;;;2.75;2.75;;;;;8.17;62.38;101466.16;5119560;27;45261;-64
2022/01/31 09:04:09;;;;;;;;;4.00;1.75;;;;;8.39;62.18;101461.75;5119498;27;46340;-65
2022/01/31 09:06:36;;;;;;;;;3.50;3.00;;;;;8.45;61.96;101460.91;5119336;27;45454;-64
2022/01/31 09:09:08;;;;;;;;;4.25;1.00;;;;;8.21;62.02;101448.69;5119271;27;45387;-64
2022/01/31 09:11:36;;;;;;;;;1.00;1.00;;;;;8.33;61.74;101475.75;5119273;27;45489;-64
2022/01/31 09:14:02;;;;;;;;;5.25;2.25;;;;;8.42;62.35;101450.38;5118267;27;46147;-64
2022/01/31 09:16:27;;;;;;;;;4.25;2.50;;;;;8.65;61.19;101466.09;5118529;27;45343;-64
2022/01/31 09:18:53;;;;;;;;;3.00;0.50;;;;;8.97;60.47;101463.34;5119345;27;45757;-67
2022/01/31 09:21:19;;;;;;;;;3.25;1.75;;;;;9.01;59.05;101454.56;5119506;27;45410;-65
2022/01/31 09:23:51;;;;;;;;;3.00;2.00;;;;;9.24;59.32;101475.47;5118621;27;46689;-65
2022/01/31 09:26:18;;;;;;;;;4.00;2.00;;;;;9.23;59.07;101499.13;5118959;27;45501;-65
2022/01/31 09:28:43;;;;;;;;;4.50;2.00;;;;;9.01;58.55;101487.84;5119134;27;45340;-65
2022/01/31 09:31:09;;;;;;;;;4.50;1.75;;;;;8.68;59.07;101451.22;5118992;27;45313;-65
2022/01/31 09:33:34;;;;;;;;;5.25;3.00;;;;;8.59;59.36;101450.38;5117506;27;46136;-65
2022/01/31 09:35:59;;;;;;;;;5.00;1.00;;;;;8.80;59.91;101499.28;5118937;27;45380;-65
2022/01/31 09:38:25;;;;;;;;;5.00;2.00;;;;;8.71;59.42;101508.97;5118715;27;45346;-65
2022/01/31 09:40:54;;;;;;;;;3.25;1.25;;;;;8.62;59.85;101508.13;5119292;27;45410;-65
2022/01/31 09:44:04;;;;;;;;;3.75;2.75;;;;;8.64;60.21;101519.47;5118386;27;45443;-66
2022/01/31 09:49:15;;;;;;;;;8.00;3.00;;;;;8.52;60.15;101528.25;5118316;27;45497;-64
2022/01/31 09:51:40;;;;;;;;;4.75;1.25;;;;;8.48;60.19;101526.50;5118625;27;45287;-66
2022/01/31 09:54:06;;;;;;;;;6.00;2.00;;;;;8.50;59.96;101530.88;5118415;27;47309;-64
2022/01/31 09:56:36;;;;;;;;;2.50;2.00;;;;;8.53;60.08;101537.88;5118297;27;45434;-64
2022/01/31 09:59:03;;;;;;;;;10.00;3.25;;;;;8.54;59.85;101542.25;5118079;27;45394;-63
2022/01/31 10:01:30;;;;;;;;;4.50;2.75;;;;;8.52;59.48;101547.50;5118503;27;45336;-63
2022/01/31 10:04:02;;;;;;;;;3.75;2.25;;;;;8.40;58.56;101518.63;5117791;27;45929;-65
2022/01/31 10:06:33;;;;;;;;;7.25;3.00;;;;;8.54;59.53;101548.38;5118368;27;45402;-66
2022/01/31 10:09:11;;;;;;;;;3.00;2.75;;;;;8.53;58.07;101567.63;5118222;27;45275;-64
2022/01/31 10:11:45;;;;;;;;;9.75;5.50;;;;;8.43;57.33;101536.97;5118234;27;45479;-65
2022/01/31 10:16:57;;;;;;;;;4.75;1.00;;;;;8.58;57.10;101564.13;5118428;27;45413;-65
2022/01/31 10:19:22;;;;;;;;;3.00;1.50;;;;;8.61;56.43;101554.50;5118021;27;45382;-65
2022/01/31 10:22:02;;;;;;;;;4.50;2.75;;;;;8.63;56.68;101586.84;5118344;27;45430;-66
2022/01/31 10:24:30;;;;;;;;;5.00;2.50;;;;;8.62;56.27;101581.63;5118053;27;45415;-66
2022/01/31 10:26:56;;;;;;;;;4.00;2.75;;;;;8.55;56.20;101591.22;5117614;27;45444;-68
2022/01/31 10:29:24;;;;;;;;;3.25;2.25;;;;;8.47;55.70;101591.25;5120930;27;45414;-64
2022/01/31 10:32:22;;;;;;;;;3.00;0.50;;;;;8.45;55.49;101581.63;5121851;27;45321;-67
2022/01/31 10:34:52;;;;;;;;;1.50;1.50;;;;;8.46;54.56;101613.09;5121444;27;47531;-66
2022/01/31 10:37:20;;;;;;;;;3.00;1.50;;;;;8.33;54.57;101591.19;5121625;27;45365;-67
2022/01/31 10:45:36;;;;;;;;;3.00;1.00;;;;;8.18;53.93;101625.31;5121588;27;45838;-67
2022/01/31 10:53:41;;;;;;;;;4.00;0.25;;;;;8.16;54.09;101664.66;5121557;27;45323;-67
2022/01/31 10:56:06;;;;;;;;;3.50;1.25;;;;;8.13;53.97;101662.03;5121266;27;46215;-66
2022/01/31 10:58:32;;;;;;;;;7.25;3.25;;;;;8.14;53.97;101662.91;5121413;27;45321;-66
2022/01/31 11:01:15;;;;;;;;;3.50;3.00;;;;;8.17;54.63;101669.03;5121378;27;45241;-66
2022/01/31 11:03:41;;;;;;;;;2.50;1.00;;;;;8.21;54.09;101671.69;5121602;27;45249;-67
2022/01/31 11:06:11;;;;;;;;;2.75;1.25;;;;;8.23;53.28;101680.41;5121135;27;46315;-67
2022/01/31 11:08:37;;;;;;;;;4.50;1.25;;;;;8.10;53.18;101664.63;5121282;27;45489;-67
2022/01/31 11:11:03;;;;;;;;;2.50;1.00;;;;;8.33;53.45;101687.44;5121085;27;45310;-67
2022/01/31 11:13:32;;;;;;;;;4.75;2.25;;;;;8.34;53.79;101669.06;5120451;27;45399;-65
2022/01/31 11:15:59;;;;;;;;;6.75;2.00;;;;;8.44;53.63;101674.34;5121101;27;47203;-67
2022/01/31 11:18:32;;;;;;;;;1.50;1.00;;;;;8.36;53.00;101679.56;5121061;27;45374;-67
2022/01/31 11:21:06;;;;;;;;;6.00;3.00;;;;;8.34;53.11;101663.81;5121271;27;45406;-67
2022/01/31 11:23:42;;;;;;;;;2.25;2.00;;;;;8.35;54.09;101662.06;5121409;27;45529;-67
2022/01/31 11:26:10;;;;;;;;;1.00;1.00;;;;;8.34;52.83;101655.06;5121017;27;45261;-67
2022/01/31 11:28:40;;;;;;;;;3.50;0.50;;;;;8.31;54.05;101671.69;5121179;27;45493;-67
2022/01/31 11:31:06;;;;;;;;;2.50;1.00;;;;;8.31;54.14;101668.19;5121117;27;45348;-67
2022/01/31 11:33:34;;;;;;;;;1.50;1.00;;;;;8.16;53.43;101663.78;5121403;27;45398;-67
2022/01/31 11:36:00;;;;;;;;;0.75;0.00;;;;;8.22;53.98;101676.94;5120932;27;45726;-67
2022/01/31 11:38:27;;;;;;;;;2.75;1.00;;;;;8.13;54.19;101656.78;5121116;27;45599;-67
2022/01/31 11:40:54;;;;;;;;;4.25;1.25;;;;;8.31;54.40;101676.94;5120230;27;45421;-68
2022/01/31 11:43:22;;;;;;;;;1.00;0.25;;;;;8.40;53.95;101678.69;5121287;27;45240;-68
2022/01/31 11:45:52;;;;;;;;;3.50;1.75;;;;;8.58;53.14;101683.09;5120828;27;45538;-68
2022/01/31 11:48:20;;;;;;;;;0.25;0.25;;;;;8.56;52.57;101640.25;5120775;27;45311;-67
2022/01/31 11:50:49;;;;;;;;;1.00;1.00;;;;;8.73;52.23;101665.59;5120535;27;45232;-68